sensor_id;sensor_type;location;lat;lon;timestamp;P1;durP1;ratioP1;P2;durP2;ratioP2
66371;SDS011;53168;51.146;17.120;2022-07-29T00:00:03;7.00;;;3.00;;
66371;SDS011;53168;51.146;17.120;2022-07-29T00:02:58;5.70;;;3.10;;
66371;SDS011;53168;51.146;17.120;2022-07-29T00:05:32;6.80;;;3.20;;
66371;SDS011;53168;51.146;17.120;2022-07-29T00:08:06;4.60;;;3.40;;
66371;SDS011;53168;51.146;17.120;2022-07-29T00:10:42;5.60;;;3.00;;
66371;SDS011;53168;51.146;17.120;2022-07-29T00:13:15;4.20;;;2.90;;
66371;SDS011;53168;51.146;17.120;2022-07-29T00:16:02;6.60;;;3.30;;
66371;SDS011;53168;51.146;17.120;2022-07-29T00:18:36;8.00;;;3.10;;
66371;SDS011;53168;51.146;17.120;2022-07-29T00:21:09;5.30;;;3.00;;
66371;SDS011;53168;51.146;17.120;2022-07-29T00:23:43;6.60;;;3.20;;
66371;SDS011;53168;51.146;17.120;2022-07-29T00:26:16;10.50;;;3.50;;
66371;SDS011;53168;51.146;17.120;2022-07-29T00:28:49;8.20;;;3.70;;
66371;SDS011;53168;51.146;17.120;2022-07-29T00:34:14;5.90;;;3.50;;
66371;SDS011;53168;51.146;17.120;2022-07-29T00:37:05;6.20;;;3.70;;
66371;SDS011;53168;51.146;17.120;2022-07-29T00:39:38;6.40;;;4.00;;
66371;SDS011;53168;51.146;17.120;2022-07-29T00:46:45;6.50;;;4.00;;
66371;SDS011;53168;51.146;17.120;2022-07-29T00:49:18;9.50;;;4.50;;
66371;SDS011;53168;51.146;17.120;2022-07-29T00:51:52;10.90;;;5.30;;
66371;SDS011;53168;51.146;17.120;2022-07-29T00:54:26;6.80;;;3.90;;
66371;SDS011;53168;51.146;17.120;2022-07-29T00:57:00;9.10;;;4.60;;
66371;SDS011;53168;51.146;17.120;2022-07-29T00:59:36;8.90;;;3.90;;
66371;SDS011;53168;51.146;17.120;2022-07-29T01:02:09;5.70;;;3.60;;
66371;SDS011;53168;51.146;17.120;2022-07-29T01:04:42;8.50;;;3.80;;
66371;SDS011;53168;51.146;17.120;2022-07-29T01:07:16;4.90;;;3.30;;
66371;SDS011;53168;51.146;17.120;2022-07-29T01:09:50;10.20;;;4.20;;
66371;SDS011;53168;51.146;17.120;2022-07-29T01:12:26;10.60;;;4.10;;
66371;SDS011;53168;51.146;17.120;2022-07-29T01:15:03;10.90;;;4.20;;
66371;SDS011;53168;51.146;17.120;2022-07-29T01:17:42;10.00;;;4.80;;
66371;SDS011;53168;51.146;17.120;2022-07-29T01:20:31;8.10;;;3.80;;
66371;SDS011;53168;51.146;17.120;2022-07-29T01:23:51;8.50;;;3.80;;
66371;SDS011;53168;51.146;17.120;2022-07-29T01:26:43;9.10;;;3.80;;
66371;SDS011;53168;51.146;17.120;2022-07-29T01:29:24;7.50;;;3.60;;
66371;SDS011;53168;51.146;17.120;2022-07-29T01:32:12;6.30;;;3.50;;
66371;SDS011;53168;51.146;17.120;2022-07-29T01:35:02;8.90;;;3.40;;
66371;SDS011;53168;51.146;17.120;2022-07-29T01:37:39;6.00;;;3.70;;
66371;SDS011;53168;51.146;17.120;2022-07-29T01:40:22;8.70;;;3.70;;
66371;SDS011;53168;51.146;17.120;2022-07-29T01:43:03;6.60;;;3.80;;
66371;SDS011;53168;51.146;17.120;2022-07-29T01:45:46;4.40;;;3.20;;
66371;SDS011;53168;51.146;17.120;2022-07-29T01:48:27;9.80;;;3.90;;
66371;SDS011;53168;51.146;17.120;2022-07-29T01:51:11;6.50;;;4.00;;
66371;SDS011;53168;51.146;17.120;2022-07-29T01:53:52;9.60;;;4.00;;
66371;SDS011;53168;51.146;17.120;2022-07-29T01:56:33;8.00;;;4.40;;
66371;SDS011;53168;51.146;17.120;2022-07-29T01:59:10;7.00;;;5.10;;
66371;SDS011;53168;51.146;17.120;2022-07-29T02:04:49;12.90;;;6.00;;
66371;SDS011;53168;51.146;17.120;2022-07-29T02:07:24;8.40;;;4.80;;
66371;SDS011;53168;51.146;17.120;2022-07-29T02:10:02;6.50;;;4.40;;
66371;SDS011;53168;51.146;17.120;2022-07-29T02:12:40;10.60;;;4.80;;
66371;SDS011;53168;51.146;17.120;2022-07-29T02:15:20;9.50;;;5.00;;
66371;SDS011;53168;51.146;17.120;2022-07-29T02:18:00;12.30;;;5.20;;
66371;SDS011;53168;51.146;17.120;2022-07-29T02:20:37;12.90;;;6.50;;
66371;SDS011;53168;51.146;17.120;2022-07-29T02:23:13;9.80;;;6.30;;
66371;SDS011;53168;51.146;17.120;2022-07-29T02:25:53;13.40;;;6.60;;
66371;SDS011;53168;51.146;17.120;2022-07-29T02:28:29;8.00;;;5.90;;
66371;SDS011;53168;51.146;17.120;2022-07-29T02:31:04;9.10;;;6.30;;
66371;SDS011;53168;51.146;17.120;2022-07-29T02:33:40;10.60;;;6.40;;
66371;SDS011;53168;51.146;17.120;2022-07-29T02:36:20;12.60;;;5.10;;
66371;SDS011;53168;51.146;17.120;2022-07-29T02:38:56;8.90;;;5.40;;
66371;SDS011;53168;51.146;17.120;2022-07-29T02:41:35;7.60;;;4.60;;
66371;SDS011;53168;51.146;17.120;2022-07-29T02:44:14;7.50;;;4.20;;
66371;SDS011;53168;51.146;17.120;2022-07-29T02:46:58;8.80;;;4.60;;
66371;SDS011;53168;51.146;17.120;2022-07-29T02:49:40;8.00;;;4.40;;
66371;SDS011;53168;51.146;17.120;2022-07-29T02:52:25;8.80;;;4.30;;
66371;SDS011;53168;51.146;17.120;2022-07-29T02:55:13;7.10;;;4.20;;
66371;SDS011;53168;51.146;17.120;2022-07-29T02:57:55;8.40;;;4.50;;
66371;SDS011;53168;51.146;17.120;2022-07-29T03:00:34;7.00;;;4.90;;
66371;SDS011;53168;51.146;17.120;2022-07-29T03:03:12;8.90;;;4.40;;
66371;SDS011;53168;51.146;17.120;2022-07-29T03:05:49;11.20;;;4.90;;
66371;SDS011;53168;51.146;17.120;2022-07-29T03:08:28;7.00;;;5.10;;
66371;SDS011;53168;51.146;17.120;2022-07-29T03:11:04;9.00;;;5.10;;
66371;SDS011;53168;51.146;17.120;2022-07-29T03:13:40;9.30;;;6.10;;
66371;SDS011;53168;51.146;17.120;2022-07-29T03:16:14;12.00;;;6.80;;
66371;SDS011;53168;51.146;17.120;2022-07-29T03:18:50;12.80;;;9.20;;
66371;SDS011;53168;51.146;17.120;2022-07-29T03:21:24;12.90;;;7.50;;
66371;SDS011;53168;51.146;17.120;2022-07-29T03:23:57;10.20;;;6.70;;
66371;SDS011;53168;51.146;17.120;2022-07-29T03:26:36;11.90;;;7.00;;
66371;SDS011;53168;51.146;17.120;2022-07-29T03:29:09;11.80;;;6.50;;
66371;SDS011;53168;51.146;17.120;2022-07-29T03:31:43;8.10;;;6.20;;
66371;SDS011;53168;51.146;17.120;2022-07-29T03:34:17;10.00;;;6.30;;
66371;SDS011;53168;51.146;17.120;2022-07-29T03:36:52;9.50;;;6.40;;
66371;SDS011;53168;51.146;17.120;2022-07-29T03:39:29;9.80;;;6.70;;
66371;SDS011;53168;51.146;17.120;2022-07-29T03:42:08;8.80;;;5.50;;
66371;SDS011;53168;51.146;17.120;2022-07-29T03:44:47;8.80;;;6.10;;
66371;SDS011;53168;51.146;17.120;2022-07-29T03:47:25;9.50;;;6.10;;
66371;SDS011;53168;51.146;17.120;2022-07-29T03:50:21;8.80;;;4.70;;
66371;SDS011;53168;51.146;17.120;2022-07-29T03:52:55;9.00;;;4.50;;
66371;SDS011;53168;51.146;17.120;2022-07-29T03:55:41;9.20;;;4.70;;
66371;SDS011;53168;51.146;17.120;2022-07-29T03:58:17;8.50;;;4.10;;
66371;SDS011;53168;51.146;17.120;2022-07-29T04:00:51;8.10;;;4.40;;
66371;SDS011;53168;51.146;17.120;2022-07-29T04:03:26;7.00;;;4.30;;
66371;SDS011;53168;51.146;17.120;2022-07-29T04:06:05;8.60;;;4.20;;
66371;SDS011;53168;51.146;17.120;2022-07-29T04:08:39;14.90;;;6.00;;
66371;SDS011;53168;51.146;17.120;2022-07-29T04:11:13;13.60;;;4.60;;
66371;SDS011;53168;51.146;17.120;2022-07-29T04:13:47;8.00;;;4.00;;
66371;SDS011;53168;51.146;17.120;2022-07-29T04:16:20;8.30;;;4.10;;
66371;SDS011;53168;51.146;17.120;2022-07-29T04:18:53;9.70;;;4.10;;
66371;SDS011;53168;51.146;17.120;2022-07-29T04:21:27;8.60;;;4.30;;
66371;SDS011;53168;51.146;17.120;2022-07-29T04:24:00;12.90;;;4.60;;
66371;SDS011;53168;51.146;17.120;2022-07-29T04:26:34;13.50;;;4.10;;
66371;SDS011;53168;51.146;17.120;2022-07-29T04:29:08;12.90;;;4.60;;
66371;SDS011;53168;51.146;17.120;2022-07-29T04:31:42;8.00;;;4.40;;
66371;SDS011;53168;51.146;17.120;2022-07-29T04:34:16;8.60;;;3.70;;
66371;SDS011;53168;51.146;17.120;2022-07-29T04:36:50;6.40;;;3.50;;
66371;SDS011;53168;51.146;17.120;2022-07-29T04:39:23;7.80;;;4.40;;
66371;SDS011;53168;51.146;17.120;2022-07-29T04:41:59;8.40;;;3.80;;
66371;SDS011;53168;51.146;17.120;2022-07-29T04:44:33;11.70;;;4.30;;
66371;SDS011;53168;51.146;17.120;2022-07-29T04:47:10;8.00;;;4.40;;
66371;SDS011;53168;51.146;17.120;2022-07-29T04:49:43;9.10;;;3.90;;
66371;SDS011;53168;51.146;17.120;2022-07-29T04:52:16;6.30;;;3.90;;
66371;SDS011;53168;51.146;17.120;2022-07-29T04:54:49;10.50;;;4.30;;
66371;SDS011;53168;51.146;17.120;2022-07-29T04:57:23;6.80;;;4.60;;
66371;SDS011;53168;51.146;17.120;2022-07-29T04:59:56;8.30;;;4.40;;
66371;SDS011;53168;51.146;17.120;2022-07-29T05:02:33;7.00;;;4.50;;
66371;SDS011;53168;51.146;17.120;2022-07-29T05:05:08;10.80;;;4.20;;
66371;SDS011;53168;51.146;17.120;2022-07-29T05:07:44;6.40;;;4.50;;
66371;SDS011;53168;51.146;17.120;2022-07-29T05:10:17;11.70;;;4.40;;
66371;SDS011;53168;51.146;17.120;2022-07-29T05:12:51;6.10;;;4.10;;
66371;SDS011;53168;51.146;17.120;2022-07-29T05:15:24;11.80;;;3.90;;
66371;SDS011;53168;51.146;17.120;2022-07-29T05:17:57;5.90;;;3.40;;
66371;SDS011;53168;51.146;17.120;2022-07-29T05:20:31;6.90;;;4.00;;
66371;SDS011;53168;51.146;17.120;2022-07-29T05:23:05;7.00;;;3.60;;
66371;SDS011;53168;51.146;17.120;2022-07-29T05:25:38;7.10;;;3.20;;
66371;SDS011;53168;51.146;17.120;2022-07-29T05:28:14;8.00;;;3.20;;
66371;SDS011;53168;51.146;17.120;2022-07-29T05:30:48;6.60;;;3.70;;
66371;SDS011;53168;51.146;17.120;2022-07-29T05:33:22;8.10;;;3.50;;
66371;SDS011;53168;51.146;17.120;2022-07-29T05:36:06;7.30;;;3.70;;
66371;SDS011;53168;51.146;17.120;2022-07-29T05:38:40;5.60;;;3.40;;
66371;SDS011;53168;51.146;17.120;2022-07-29T05:41:14;9.60;;;3.90;;
66371;SDS011;53168;51.146;17.120;2022-07-29T05:43:47;5.90;;;3.40;;
66371;SDS011;53168;51.146;17.120;2022-07-29T05:46:21;6.70;;;3.40;;
66371;SDS011;53168;51.146;17.120;2022-07-29T05:48:54;6.90;;;3.20;;
66371;SDS011;53168;51.146;17.120;2022-07-29T05:51:29;6.10;;;3.50;;
66371;SDS011;53168;51.146;17.120;2022-07-29T05:54:03;7.40;;;3.70;;
66371;SDS011;53168;51.146;17.120;2022-07-29T05:56:38;7.80;;;3.80;;
66371;SDS011;53168;51.146;17.120;2022-07-29T05:59:11;8.70;;;3.50;;
66371;SDS011;53168;51.146;17.120;2022-07-29T06:01:47;5.90;;;3.20;;
66371;SDS011;53168;51.146;17.120;2022-07-29T06:04:21;7.30;;;3.20;;
66371;SDS011;53168;51.146;17.120;2022-07-29T06:06:54;6.10;;;2.80;;
66371;SDS011;53168;51.146;17.120;2022-07-29T06:09:28;5.80;;;3.50;;
66371;SDS011;53168;51.146;17.120;2022-07-29T06:12:06;6.70;;;3.10;;
66371;SDS011;53168;51.146;17.120;2022-07-29T06:14:40;9.20;;;3.00;;
66371;SDS011;53168;51.146;17.120;2022-07-29T06:17:13;7.70;;;3.00;;
66371;SDS011;53168;51.146;17.120;2022-07-29T06:19:47;6.70;;;2.80;;
66371;SDS011;53168;51.146;17.120;2022-07-29T06:22:20;6.30;;;3.30;;
66371;SDS011;53168;51.146;17.120;2022-07-29T06:24:54;5.30;;;3.20;;
66371;SDS011;53168;51.146;17.120;2022-07-29T06:27:27;7.40;;;3.20;;
66371;SDS011;53168;51.146;17.120;2022-07-29T06:30:01;10.60;;;3.10;;
66371;SDS011;53168;51.146;17.120;2022-07-29T06:32:37;9.80;;;3.10;;
66371;SDS011;53168;51.146;17.120;2022-07-29T06:35:12;7.90;;;2.90;;
66371;SDS011;53168;51.146;17.120;2022-07-29T06:38:06;6.80;;;2.90;;
66371;SDS011;53168;51.146;17.120;2022-07-29T06:41:00;11.20;;;2.70;;
66371;SDS011;53168;51.146;17.120;2022-07-29T06:43:37;5.60;;;2.70;;
66371;SDS011;53168;51.146;17.120;2022-07-29T06:46:24;5.40;;;2.90;;
66371;SDS011;53168;51.146;17.120;2022-07-29T06:48:58;5.60;;;2.60;;
66371;SDS011;53168;51.146;17.120;2022-07-29T06:51:32;6.50;;;2.70;;
66371;SDS011;53168;51.146;17.120;2022-07-29T06:54:06;4.80;;;2.90;;
66371;SDS011;53168;51.146;17.120;2022-07-29T06:56:40;5.60;;;2.60;;
66371;SDS011;53168;51.146;17.120;2022-07-29T06:59:13;4.50;;;2.70;;
66371;SDS011;53168;51.146;17.120;2022-07-29T07:01:46;4.10;;;2.30;;
66371;SDS011;53168;51.146;17.120;2022-07-29T07:04:20;6.40;;;2.90;;
66371;SDS011;53168;51.146;17.120;2022-07-29T07:06:53;6.30;;;3.00;;
66371;SDS011;53168;51.146;17.120;2022-07-29T07:09:26;7.70;;;2.70;;
66371;SDS011;53168;51.146;17.120;2022-07-29T07:12:10;8.40;;;2.90;;
66371;SDS011;53168;51.146;17.120;2022-07-29T07:14:44;4.40;;;2.80;;
66371;SDS011;53168;51.146;17.120;2022-07-29T07:17:17;4.80;;;2.80;;
66371;SDS011;53168;51.146;17.120;2022-07-29T07:19:50;4.80;;;2.90;;
66371;SDS011;53168;51.146;17.120;2022-07-29T07:22:24;8.00;;;2.70;;
66371;SDS011;53168;51.146;17.120;2022-07-29T07:24:57;6.00;;;2.60;;
66371;SDS011;53168;51.146;17.120;2022-07-29T07:27:30;5.90;;;2.80;;
66371;SDS011;53168;51.146;17.120;2022-07-29T07:30:05;7.40;;;3.00;;
66371;SDS011;53168;51.146;17.120;2022-07-29T07:32:39;6.70;;;3.00;;
66371;SDS011;53168;51.146;17.120;2022-07-29T07:35:13;9.80;;;2.70;;
66371;SDS011;53168;51.146;17.120;2022-07-29T07:37:47;6.50;;;2.70;;
66371;SDS011;53168;51.146;17.120;2022-07-29T07:40:20;5.70;;;2.50;;
66371;SDS011;53168;51.146;17.120;2022-07-29T07:54:43;4.80;;;2.70;;
66371;SDS011;53168;51.146;17.120;2022-07-29T07:57:16;5.10;;;2.70;;
66371;SDS011;53168;51.146;17.120;2022-07-29T07:59:50;4.30;;;2.80;;
66371;SDS011;53168;51.146;17.120;2022-07-29T08:02:23;6.40;;;2.80;;
66371;SDS011;53168;51.146;17.120;2022-07-29T08:04:57;4.70;;;2.50;;
66371;SDS011;53168;51.146;17.120;2022-07-29T08:07:30;4.10;;;2.40;;
66371;SDS011;53168;51.146;17.120;2022-07-29T08:10:04;7.90;;;3.40;;
66371;SDS011;53168;51.146;17.120;2022-07-29T08:12:38;7.10;;;3.30;;
66371;SDS011;53168;51.146;17.120;2022-07-29T08:15:12;6.50;;;2.70;;
66371;SDS011;53168;51.146;17.120;2022-07-29T08:17:45;5.80;;;2.60;;
66371;SDS011;53168;51.146;17.120;2022-07-29T08:20:18;7.60;;;3.20;;
66371;SDS011;53168;51.146;17.120;2022-07-29T08:22:52;5.90;;;2.90;;
66371;SDS011;53168;51.146;17.120;2022-07-29T08:25:26;7.00;;;3.20;;
66371;SDS011;53168;51.146;17.120;2022-07-29T08:28:34;7.10;;;3.10;;
66371;SDS011;53168;51.146;17.120;2022-07-29T08:31:08;6.50;;;3.00;;
66371;SDS011;53168;51.146;17.120;2022-07-29T08:33:42;6.00;;;3.10;;
66371;SDS011;53168;51.146;17.120;2022-07-29T08:36:16;8.60;;;3.10;;
66371;SDS011;53168;51.146;17.120;2022-07-29T08:38:52;7.90;;;2.80;;
66371;SDS011;53168;51.146;17.120;2022-07-29T08:41:27;4.80;;;2.90;;
66371;SDS011;53168;51.146;17.120;2022-07-29T08:44:02;3.50;;;2.50;;
66371;SDS011;53168;51.146;17.120;2022-07-29T08:46:59;6.00;;;2.60;;
66371;SDS011;53168;51.146;17.120;2022-07-29T08:49:34;5.30;;;2.90;;
66371;SDS011;53168;51.146;17.120;2022-07-29T08:52:11;3.60;;;2.90;;
66371;SDS011;53168;51.146;17.120;2022-07-29T08:54:46;4.90;;;3.10;;
66371;SDS011;53168;51.146;17.120;2022-07-29T08:57:22;5.80;;;2.90;;
66371;SDS011;53168;51.146;17.120;2022-07-29T09:00:00;6.00;;;2.80;;
66371;SDS011;53168;51.146;17.120;2022-07-29T09:02:47;5.60;;;3.00;;
66371;SDS011;53168;51.146;17.120;2022-07-29T09:05:28;6.00;;;2.90;;
66371;SDS011;53168;51.146;17.120;2022-07-29T09:08:09;3.30;;;2.40;;
66371;SDS011;53168;51.146;17.120;2022-07-29T09:13:43;8.40;;;2.90;;
66371;SDS011;53168;51.146;17.120;2022-07-29T09:16:18;7.90;;;3.00;;
66371;SDS011;53168;51.146;17.120;2022-07-29T09:19:21;9.00;;;3.30;;
66371;SDS011;53168;51.146;17.120;2022-07-29T09:21:56;4.50;;;2.90;;
66371;SDS011;53168;51.146;17.120;2022-07-29T09:24:41;8.00;;;3.00;;
66371;SDS011;53168;51.146;17.120;2022-07-29T09:27:25;7.00;;;2.70;;
66371;SDS011;53168;51.146;17.120;2022-07-29T09:30:01;4.60;;;2.60;;
66371;SDS011;53168;51.146;17.120;2022-07-29T09:32:55;7.50;;;3.30;;
66371;SDS011;53168;51.146;17.120;2022-07-29T09:35:32;4.70;;;3.10;;
66371;SDS011;53168;51.146;17.120;2022-07-29T09:38:12;5.90;;;3.10;;
66371;SDS011;53168;51.146;17.120;2022-07-29T09:40:57;7.00;;;3.30;;
66371;SDS011;53168;51.146;17.120;2022-07-29T09:43:35;4.40;;;3.30;;
66371;SDS011;53168;51.146;17.120;2022-07-29T09:46:15;6.40;;;3.40;;
66371;SDS011;53168;51.146;17.120;2022-07-29T09:49:07;11.50;;;3.70;;
66371;SDS011;53168;51.146;17.120;2022-07-29T09:51:46;4.00;;;3.20;;
66371;SDS011;53168;51.146;17.120;2022-07-29T09:54:33;5.30;;;3.10;;
66371;SDS011;53168;51.146;17.120;2022-07-29T09:57:09;4.60;;;3.10;;
66371;SDS011;53168;51.146;17.120;2022-07-29T10:00:03;5.10;;;3.30;;
66371;SDS011;53168;51.146;17.120;2022-07-29T10:02:44;4.70;;;3.20;;
66371;SDS011;53168;51.146;17.120;2022-07-29T10:05:25;4.50;;;3.20;;
66371;SDS011;53168;51.146;17.120;2022-07-29T10:08:06;5.50;;;3.10;;
66371;SDS011;53168;51.146;17.120;2022-07-29T10:10:42;6.20;;;3.50;;
66371;SDS011;53168;51.146;17.120;2022-07-29T10:13:16;6.90;;;3.90;;
66371;SDS011;53168;51.146;17.120;2022-07-29T10:15:50;7.10;;;3.30;;
66371;SDS011;53168;51.146;17.120;2022-07-29T10:18:23;5.20;;;3.20;;
66371;SDS011;53168;51.146;17.120;2022-07-29T10:20:58;9.10;;;3.90;;
66371;SDS011;53168;51.146;17.120;2022-07-29T10:23:32;5.30;;;3.50;;
66371;SDS011;53168;51.146;17.120;2022-07-29T10:26:17;4.90;;;3.50;;
66371;SDS011;53168;51.146;17.120;2022-07-29T10:28:52;6.00;;;3.50;;
66371;SDS011;53168;51.146;17.120;2022-07-29T10:31:38;6.60;;;3.90;;
66371;SDS011;53168;51.146;17.120;2022-07-29T10:34:26;5.40;;;3.90;;
66371;SDS011;53168;51.146;17.120;2022-07-29T10:37:16;9.10;;;4.20;;
66371;SDS011;53168;51.146;17.120;2022-07-29T10:40:18;6.50;;;3.80;;
66371;SDS011;53168;51.146;17.120;2022-07-29T10:43:25;4.80;;;3.40;;
66371;SDS011;53168;51.146;17.120;2022-07-29T10:46:03;7.10;;;3.40;;
66371;SDS011;53168;51.146;17.120;2022-07-29T10:49:05;7.60;;;3.60;;
66371;SDS011;53168;51.146;17.120;2022-07-29T10:51:59;7.50;;;3.60;;
66371;SDS011;53168;51.146;17.120;2022-07-29T10:54:41;8.30;;;3.40;;
66371;SDS011;53168;51.146;17.120;2022-07-29T10:57:27;6.00;;;3.40;;
66371;SDS011;53168;51.146;17.120;2022-07-29T11:00:32;5.00;;;3.80;;
66371;SDS011;53168;51.146;17.120;2022-07-29T11:03:05;5.80;;;3.60;;
66371;SDS011;53168;51.146;17.120;2022-07-29T11:05:57;8.10;;;3.60;;
66371;SDS011;53168;51.146;17.120;2022-07-29T11:08:30;5.70;;;3.60;;
66371;SDS011;53168;51.146;17.120;2022-07-29T15:26:17;6.30;;;4.60;;
66371;SDS011;53168;51.146;17.120;2022-07-29T15:28:51;7.40;;;4.60;;
66371;SDS011;53168;51.146;17.120;2022-07-29T15:31:26;7.90;;;4.30;;
66371;SDS011;53168;51.146;17.120;2022-07-29T15:33:59;6.30;;;4.60;;
66371;SDS011;53168;51.146;17.120;2022-07-29T15:36:36;6.40;;;4.30;;
66371;SDS011;53168;51.146;17.120;2022-07-29T15:39:25;6.60;;;4.30;;
66371;SDS011;53168;51.146;17.120;2022-07-29T15:41:59;7.10;;;4.50;;
66371;SDS011;53168;51.146;17.120;2022-07-29T15:44:33;8.20;;;4.40;;
66371;SDS011;53168;51.146;17.120;2022-07-29T15:47:06;9.50;;;4.70;;
66371;SDS011;53168;51.146;17.120;2022-07-29T15:49:43;6.10;;;3.80;;
66371;SDS011;53168;51.146;17.120;2022-07-29T15:52:20;6.90;;;4.40;;
66371;SDS011;53168;51.146;17.120;2022-07-29T15:54:58;6.60;;;4.50;;
66371;SDS011;53168;51.146;17.120;2022-07-29T15:57:37;6.60;;;4.40;;
66371;SDS011;53168;51.146;17.120;2022-07-29T16:00:13;7.00;;;4.40;;
66371;SDS011;53168;51.146;17.120;2022-07-29T16:03:20;8.30;;;4.70;;
66371;SDS011;53168;51.146;17.120;2022-07-29T16:05:54;8.30;;;4.50;;
66371;SDS011;53168;51.146;17.120;2022-07-29T16:08:27;8.50;;;4.50;;
66371;SDS011;53168;51.146;17.120;2022-07-29T16:11:00;8.40;;;4.80;;
66371;SDS011;53168;51.146;17.120;2022-07-29T16:13:34;8.50;;;4.50;;
66371;SDS011;53168;51.146;17.120;2022-07-29T16:16:07;17.10;;;4.90;;
66371;SDS011;53168;51.146;17.120;2022-07-29T16:18:41;9.30;;;5.20;;
66371;SDS011;53168;51.146;17.120;2022-07-29T16:21:14;5.90;;;4.30;;
66371;SDS011;53168;51.146;17.120;2022-07-29T16:23:48;10.60;;;5.40;;
66371;SDS011;53168;51.146;17.120;2022-07-29T16:26:22;7.60;;;4.30;;
66371;SDS011;53168;51.146;17.120;2022-07-29T16:28:55;13.30;;;4.80;;
66371;SDS011;53168;51.146;17.120;2022-07-29T16:31:29;9.40;;;4.80;;
66371;SDS011;53168;51.146;17.120;2022-07-29T16:34:02;7.40;;;4.20;;
66371;SDS011;53168;51.146;17.120;2022-07-29T16:36:36;8.10;;;4.70;;
66371;SDS011;53168;51.146;17.120;2022-07-29T16:39:17;9.30;;;5.00;;
66371;SDS011;53168;51.146;17.120;2022-07-29T16:41:51;5.90;;;4.30;;
66371;SDS011;53168;51.146;17.120;2022-07-29T16:44:29;9.50;;;5.10;;
66371;SDS011;53168;51.146;17.120;2022-07-29T16:47:11;8.70;;;4.90;;
66371;SDS011;53168;51.146;17.120;2022-07-29T16:49:46;8.70;;;4.40;;
66371;SDS011;53168;51.146;17.120;2022-07-29T16:52:20;11.50;;;4.70;;
66371;SDS011;53168;51.146;17.120;2022-07-29T16:54:55;13.70;;;4.70;;
66371;SDS011;53168;51.146;17.120;2022-07-29T16:57:31;6.90;;;4.60;;
66371;SDS011;53168;51.146;17.120;2022-07-29T17:00:05;8.90;;;4.70;;
66371;SDS011;53168;51.146;17.120;2022-07-29T17:02:40;6.10;;;4.40;;
66371;SDS011;53168;51.146;17.120;2022-07-29T17:05:14;7.40;;;4.40;;
66371;SDS011;53168;51.146;17.120;2022-07-29T17:07:47;7.00;;;4.80;;
66371;SDS011;53168;51.146;17.120;2022-07-29T17:10:20;6.20;;;4.60;;
66371;SDS011;53168;51.146;17.120;2022-07-29T17:12:57;11.40;;;5.20;;
66371;SDS011;53168;51.146;17.120;2022-07-29T17:15:30;8.30;;;4.90;;
66371;SDS011;53168;51.146;17.120;2022-07-29T17:18:06;7.70;;;5.10;;
66371;SDS011;53168;51.146;17.120;2022-07-29T17:20:42;8.60;;;5.00;;
66371;SDS011;53168;51.146;17.120;2022-07-29T17:23:15;10.20;;;5.40;;
66371;SDS011;53168;51.146;17.120;2022-07-29T17:25:49;9.00;;;5.50;;
66371;SDS011;53168;51.146;17.120;2022-07-29T17:28:22;10.80;;;5.50;;
66371;SDS011;53168;51.146;17.120;2022-07-29T17:30:56;11.00;;;5.50;;
66371;SDS011;53168;51.146;17.120;2022-07-29T17:33:29;15.70;;;6.00;;
66371;SDS011;53168;51.146;17.120;2022-07-29T17:36:03;6.90;;;5.60;;
66371;SDS011;53168;51.146;17.120;2022-07-29T17:39:02;8.10;;;5.40;;
66371;SDS011;53168;51.146;17.120;2022-07-29T17:41:37;10.30;;;5.50;;
66371;SDS011;53168;51.146;17.120;2022-07-29T17:44:11;10.90;;;5.60;;
66371;SDS011;53168;51.146;17.120;2022-07-29T17:46:44;11.80;;;5.80;;
66371;SDS011;53168;51.146;17.120;2022-07-29T17:49:18;14.10;;;5.60;;
66371;SDS011;53168;51.146;17.120;2022-07-29T17:51:51;7.20;;;5.70;;
66371;SDS011;53168;51.146;17.120;2022-07-29T17:54:30;9.40;;;5.70;;
66371;SDS011;53168;51.146;17.120;2022-07-29T17:57:04;9.60;;;5.60;;
66371;SDS011;53168;51.146;17.120;2022-07-29T17:59:38;10.20;;;6.20;;
66371;SDS011;53168;51.146;17.120;2022-07-29T18:02:11;10.80;;;6.00;;
66371;SDS011;53168;51.146;17.120;2022-07-29T18:04:45;11.00;;;6.40;;
66371;SDS011;53168;51.146;17.120;2022-07-29T18:07:20;7.10;;;5.60;;
66371;SDS011;53168;51.146;17.120;2022-07-29T18:09:55;12.20;;;6.40;;
66371;SDS011;53168;51.146;17.120;2022-07-29T18:12:30;9.50;;;6.40;;
66371;SDS011;53168;51.146;17.120;2022-07-29T18:15:05;8.70;;;6.30;;
66371;SDS011;53168;51.146;17.120;2022-07-29T18:17:38;12.40;;;6.30;;
66371;SDS011;53168;51.146;17.120;2022-07-29T18:20:27;12.80;;;7.60;;
66371;SDS011;53168;51.146;17.120;2022-07-29T18:23:01;11.60;;;6.10;;
66371;SDS011;53168;51.146;17.120;2022-07-29T18:25:35;9.10;;;6.50;;
66371;SDS011;53168;51.146;17.120;2022-07-29T18:28:10;11.30;;;7.10;;
66371;SDS011;53168;51.146;17.120;2022-07-29T18:30:48;10.50;;;7.00;;
66371;SDS011;53168;51.146;17.120;2022-07-29T18:33:22;12.30;;;7.20;;
66371;SDS011;53168;51.146;17.120;2022-07-29T18:35:55;11.90;;;8.00;;
66371;SDS011;53168;51.146;17.120;2022-07-29T18:38:50;12.20;;;7.80;;
66371;SDS011;53168;51.146;17.120;2022-07-29T18:41:34;14.70;;;8.40;;
66371;SDS011;53168;51.146;17.120;2022-07-29T18:44:20;10.90;;;7.30;;
66371;SDS011;53168;51.146;17.120;2022-07-29T18:46:54;13.90;;;7.40;;
66371;SDS011;53168;51.146;17.120;2022-07-29T18:49:28;13.40;;;8.60;;
66371;SDS011;53168;51.146;17.120;2022-07-29T18:52:02;15.70;;;7.70;;
66371;SDS011;53168;51.146;17.120;2022-07-29T18:54:36;13.20;;;7.60;;
66371;SDS011;53168;51.146;17.120;2022-07-29T18:57:09;16.80;;;7.90;;
66371;SDS011;53168;51.146;17.120;2022-07-29T19:00:04;15.40;;;7.50;;
66371;SDS011;53168;51.146;17.120;2022-07-29T19:02:42;40.40;;;7.70;;
66371;SDS011;53168;51.146;17.120;2022-07-29T19:05:24;17.30;;;7.00;;
66371;SDS011;53168;51.146;17.120;2022-07-29T19:07:58;17.50;;;6.70;;
66371;SDS011;53168;51.146;17.120;2022-07-29T19:10:32;19.70;;;6.90;;
66371;SDS011;53168;51.146;17.120;2022-07-29T19:13:08;19.20;;;6.80;;
66371;SDS011;53168;51.146;17.120;2022-07-29T19:15:43;12.90;;;8.70;;
66371;SDS011;53168;51.146;17.120;2022-07-29T19:18:16;15.10;;;7.50;;
66371;SDS011;53168;51.146;17.120;2022-07-29T19:20:50;11.20;;;7.60;;
66371;SDS011;53168;51.146;17.120;2022-07-29T19:23:23;10.80;;;7.20;;
66371;SDS011;53168;51.146;17.120;2022-07-29T19:25:57;9.60;;;6.10;;
66371;SDS011;53168;51.146;17.120;2022-07-29T19:28:30;11.80;;;6.50;;
66371;SDS011;53168;51.146;17.120;2022-07-29T19:31:03;10.20;;;6.50;;
66371;SDS011;53168;51.146;17.120;2022-07-29T19:33:38;12.00;;;6.80;;
66371;SDS011;53168;51.146;17.120;2022-07-29T19:36:20;8.90;;;6.60;;
66371;SDS011;53168;51.146;17.120;2022-07-29T19:38:54;11.30;;;7.30;;
66371;SDS011;53168;51.146;17.120;2022-07-29T19:41:27;11.80;;;7.20;;
66371;SDS011;53168;51.146;17.120;2022-07-29T19:44:00;15.30;;;7.70;;
66371;SDS011;53168;51.146;17.120;2022-07-29T19:46:35;13.20;;;7.60;;
66371;SDS011;53168;51.146;17.120;2022-07-29T19:49:09;11.00;;;7.20;;
66371;SDS011;53168;51.146;17.120;2022-07-29T19:51:43;11.80;;;7.20;;
66371;SDS011;53168;51.146;17.120;2022-07-29T19:54:16;11.70;;;7.60;;
66371;SDS011;53168;51.146;17.120;2022-07-29T19:56:50;12.20;;;7.50;;
66371;SDS011;53168;51.146;17.120;2022-07-29T19:59:23;11.40;;;7.90;;
66371;SDS011;53168;51.146;17.120;2022-07-29T20:01:59;9.80;;;7.80;;
66371;SDS011;53168;51.146;17.120;2022-07-29T20:04:32;10.90;;;7.50;;
66371;SDS011;53168;51.146;17.120;2022-07-29T20:07:07;10.00;;;7.20;;
66371;SDS011;53168;51.146;17.120;2022-07-29T22:05:13;14.30;;;8.70;;